Time;durP1;ratioP1;P1;durP2;ratioP2;P2;SDS_P1;SDS_P2;PMS_P1;PMS_P2;Temp;Humidity;BMP_temperature;BMP_pressure;BME280_temperature;BME280_humidity;BME280_pressure;Samples;Min_cycle;Max_cycle;Signal;HPM_P1;HPM_P2
2022/07/11 00:00:14;;;;;;;1.92;1.10;;;14.60;99.90;;;;;;4227468;28;20100;-69
2022/07/11 00:02:16;;;;;;;3.30;1.08;;;14.60;99.90;;;;;;4226762;28;20081;-70
2022/07/11 00:04:17;;;;;;;2.05;1.30;;;14.60;99.90;;;;;;4228295;28;20073;-70
2022/07/11 00:06:18;;;;;;;1.45;1.00;;;14.60;99.90;;;;;;4228997;28;20055;-70
2022/07/11 00:08:19;;;;;;;1.50;1.10;;;14.60;99.90;;;;;;4228012;28;20080;-69
2022/07/11 00:10:21;;;;;;;1.42;1.00;;;14.60;99.90;;;;;;4229206;28;20089;-71
2022/07/11 00:12:25;;;;;;;1.13;0.93;;;14.60;99.90;;;;;;4227906;28;20020;-69
2022/07/11 00:14:26;;;;;;;2.15;1.17;;;14.60;99.90;;;;;;4228619;28;20112;-69
2022/07/11 00:16:28;;;;;;;3.72;1.00;;;14.60;99.90;;;;;;4227806;28;20069;-69
2022/07/11 00:18:29;;;;;;;3.30;1.73;;;14.60;99.90;;;;;;4227171;28;20456;-69
2022/07/11 00:20:30;;;;;;;1.02;0.90;;;14.60;99.90;;;;;;4227554;28;20024;-68
2022/07/11 00:22:31;;;;;;;1.10;0.88;;;14.60;99.90;;;;;;4229035;28;20023;-69
2022/07/11 00:24:33;;;;;;;1.83;1.02;;;14.60;99.90;;;;;;4227845;28;20028;-72
2022/07/11 00:26:37;;;;;;;1.02;0.90;;;14.50;99.90;;;;;;4227973;28;20031;-69
2022/07/11 00:28:38;;;;;;;2.30;0.80;;;14.50;99.90;;;;;;4227824;27;20019;-70
2022/07/11 00:30:39;;;;;;;1.83;0.93;;;14.40;99.90;;;;;;4227902;28;20483;-68
2022/07/11 00:32:41;;;;;;;1.35;1.17;;;14.40;99.90;;;;;;4228223;28;20034;-69
2022/07/11 00:34:42;;;;;;;1.35;0.90;;;14.40;99.90;;;;;;4226400;28;20065;-69
2022/07/11 00:36:44;;;;;;;3.75;1.10;;;14.30;99.90;;;;;;4228283;28;20365;-71
2022/07/11 00:38:45;;;;;;;1.10;1.00;;;14.30;99.90;;;;;;4227342;28;20055;-69
2022/07/11 00:40:46;;;;;;;1.05;0.95;;;14.30;99.90;;;;;;4228788;28;20077;-69
2022/07/11 00:42:48;;;;;;;1.80;1.02;;;14.30;99.90;;;;;;4227304;27;20064;-68
2022/07/11 00:44:49;;;;;;;3.20;0.98;;;14.30;99.90;;;;;;4228454;28;20031;-69
2022/07/11 00:46:50;;;;;;;2.22;0.95;;;14.20;99.90;;;;;;4227372;28;20051;-71
2022/07/11 00:48:51;;;;;;;1.98;1.40;;;14.20;99.90;;;;;;4221876;28;20442;-68
2022/07/11 00:50:53;;;;;;;1.60;0.95;;;14.20;99.90;;;;;;4209215;28;20085;-68
2022/07/11 00:52:56;;;;;;;1.00;1.00;;;14.10;99.90;;;;;;4211560;28;20101;-69
2022/07/11 00:54:57;;;;;;;1.50;1.20;;;14.10;99.90;;;;;;4210882;28;20039;-69
2022/07/11 00:56:58;;;;;;;2.75;1.15;;;14.00;99.90;;;;;;4211771;28;20085;-69
2022/07/11 00:59:00;;;;;;;1.17;1.08;;;14.00;99.90;;;;;;4210388;28;20503;-70
2022/07/11 01:01:02;;;;;;;1.23;1.00;;;14.00;99.90;;;;;;4211469;28;20533;-69
2022/07/11 01:03:03;;;;;;;2.30;1.00;;;14.00;99.90;;;;;;4212710;28;20464;-69
2022/07/11 01:05:05;;;;;;;1.43;1.10;;;14.00;99.90;;;;;;4227956;28;20024;-70
2022/07/11 01:07:06;;;;;;;1.07;0.90;;;13.90;99.90;;;;;;4227677;28;20093;-69
2022/07/11 01:09:08;;;;;;;2.40;1.30;;;13.90;99.90;;;;;;4227450;28;20043;-71
2022/07/11 01:11:12;;;;;;;1.57;0.90;;;13.90;99.90;;;;;;4228211;28;20069;-70
2022/07/11 01:13:13;;;;;;;3.13;1.00;;;13.90;99.90;;;;;;4226667;28;20093;-69
2022/07/11 01:15:14;;;;;;;1.20;1.00;;;13.90;99.90;;;;;;4228391;28;20658;-68
2022/07/11 01:17:15;;;;;;;2.07;1.00;;;13.90;99.90;;;;;;4227072;28;20069;-69
2022/07/11 01:19:17;;;;;;;1.30;1.20;;;13.90;99.90;;;;;;4226356;28;20040;-70
2022/07/11 01:21:31;;;;;;;1.13;1.03;;;14.00;99.90;;;;;;4226808;28;20092;-70
2022/07/11 01:23:33;;;;;;;1.70;1.10;;;13.90;99.90;;;;;;4228199;28;20081;-68
2022/07/11 01:25:34;;;;;;;2.87;0.90;;;13.90;99.90;;;;;;4227051;28;20084;-69
2022/07/11 01:27:36;;;;;;;1.63;1.40;;;13.90;99.90;;;;;;4228105;28;20039;-68
2022/07/11 01:29:38;;;;;;;1.93;1.17;;;13.90;99.90;;;;;;4225115;28;20105;-69
2022/07/11 01:31:43;;;;;;;1.77;1.43;;;13.90;99.90;;;;;;4226041;28;20430;-71
2022/07/11 01:33:44;;;;;;;4.93;1.67;;;13.90;99.90;;;;;;4227008;28;20044;-68
2022/07/11 01:35:45;;;;;;;1.40;1.27;;;13.90;99.90;;;;;;4226470;28;20092;-69
2022/07/11 01:37:47;;;;;;;1.20;1.10;;;13.90;99.90;;;;;;4227224;28;20112;-70
2022/07/11 01:39:48;;;;;;;1.43;1.13;;;13.80;99.90;;;;;;4225246;28;20479;-69
2022/07/11 01:41:49;;;;;;;1.90;1.33;;;13.80;99.90;;;;;;4227397;28;20138;-68
2022/07/11 01:43:50;;;;;;;1.50;1.20;;;13.80;99.90;;;;;;4227173;28;20073;-69
2022/07/11 01:45:56;;;;;;;3.23;1.53;;;13.80;99.90;;;;;;4214287;28;20506;-69
2022/07/11 01:47:57;;;;;;;1.77;1.13;;;13.80;99.90;;;;;;4210126;28;20081;-71
2022/07/11 01:49:58;;;;;;;1.20;1.07;;;13.80;99.90;;;;;;4211235;28;20040;-69
2022/07/11 01:52:00;;;;;;;2.80;1.20;;;13.80;99.90;;;;;;4210234;28;20149;-69
2022/07/11 01:54:01;;;;;;;1.03;0.93;;;13.80;99.90;;;;;;4211067;28;20032;-68
2022/07/11 01:56:02;;;;;;;1.30;1.20;;;13.80;99.90;;;;;;4210288;28;20036;-68
2022/07/11 01:58:03;;;;;;;1.43;1.30;;;13.80;99.90;;;;;;4211056;28;20101;-70
2022/07/11 02:00:08;;;;;;;5.70;1.20;;;13.80;99.90;;;;;;4217976;28;20085;-69
2022/07/11 02:02:10;;;;;;;1.40;1.20;;;13.80;99.90;;;;;;4217281;28;20024;-70
2022/07/11 02:04:11;;;;;;;1.37;1.20;;;13.80;99.90;;;;;;4208803;28;20037;-68
2022/07/11 02:06:12;;;;;;;1.40;1.30;;;13.80;99.90;;;;;;4217902;28;20043;-70
2022/07/11 02:08:13;;;;;;;5.50;1.87;;;13.80;99.90;;;;;;4229916;28;20480;-70
2022/07/11 02:10:14;;;;;;;1.90;1.70;;;13.80;99.90;;;;;;4230785;28;20076;-70
2022/07/11 02:12:15;;;;;;;1.20;1.10;;;13.80;99.90;;;;;;4228334;28;20020;-67
2022/07/11 02:14:17;;;;;;;1.40;1.30;;;13.80;99.90;;;;;;4230791;28;20028;-69
2022/07/11 02:16:18;;;;;;;2.47;1.30;;;13.80;99.90;;;;;;4230478;28;20060;-69
2022/07/11 02:18:20;;;;;;;1.47;1.37;;;13.70;99.90;;;;;;4229931;28;20039;-70
2022/07/11 02:20:22;;;;;;;4.03;1.23;;;13.70;99.90;;;;;;4230623;28;20019;-70
2022/07/11 02:22:23;;;;;;;1.50;1.40;;;13.70;99.90;;;;;;4229582;28;20076;-70
2022/07/11 02:24:24;;;;;;;1.77;1.10;;;13.80;99.90;;;;;;4230848;28;20053;-69
2022/07/11 02:26:25;;;;;;;2.33;1.30;;;13.80;99.90;;;;;;4229486;28;20077;-69
2022/07/11 02:28:26;;;;;;;3.27;1.27;;;13.80;99.90;;;;;;4218750;28;20085;-67
2022/07/11 02:30:28;;;;;;;1.13;1.13;;;13.80;99.90;;;;;;4212761;28;20082;-70
2022/07/11 02:32:29;;;;;;;2.23;1.10;;;13.80;99.90;;;;;;4213648;28;20535;-68
2022/07/11 02:34:30;;;;;;;1.63;1.10;;;13.80;99.90;;;;;;4212496;28;20074;-68
2022/07/11 02:36:31;;;;;;;3.67;1.90;;;13.80;99.90;;;;;;4214076;28;20039;-69
2022/07/11 02:38:32;;;;;;;2.10;1.27;;;13.80;99.90;;;;;;4212247;28;20055;-69
2022/07/11 02:40:33;;;;;;;2.47;1.30;;;13.80;99.90;;;;;;4212454;28;20040;-69
2022/07/11 02:42:35;;;;;;;1.77;1.17;;;13.70;99.90;;;;;;4212877;28;20074;-69
2022/07/11 02:44:36;;;;;;;1.47;1.37;;;13.70;99.90;;;;;;4213814;28;20036;-70
2022/07/11 02:46:37;;;;;;;2.20;1.20;;;13.70;99.90;;;;;;4213121;28;20077;-71
2022/07/11 02:48:38;;;;;;;5.87;1.23;;;13.70;99.90;;;;;;4212911;28;20032;-71
2022/07/11 02:50:39;;;;;;;1.77;1.30;;;13.80;99.90;;;;;;4215286;28;20487;-70
2022/07/11 02:52:42;;;;;;;1.60;1.13;;;13.80;99.90;;;;;;4212330;28;20338;-69
2022/07/11 02:54:43;;;;;;;2.33;1.47;;;13.80;99.90;;;;;;4213495;28;20036;-69
2022/07/11 02:56:44;;;;;;;1.43;1.07;;;13.80;99.90;;;;;;4212266;28;20028;-68
2022/07/11 02:58:45;;;;;;;3.10;1.23;;;13.80;99.90;;;;;;4213387;28;20052;-67
2022/07/11 03:00:46;;;;;;;2.30;1.20;;;13.80;99.90;;;;;;4221532;28;20448;-69
2022/07/11 03:02:47;;;;;;;3.37;1.40;;;13.70;99.90;;;;;;4230157;28;20090;-69
2022/07/11 03:04:48;;;;;;;2.60;1.20;;;13.80;99.90;;;;;;4228889;28;20108;-69
2022/07/11 03:06:50;;;;;;;3.03;1.23;;;13.80;99.90;;;;;;4219063;28;20036;-69
2022/07/11 03:08:51;;;;;;;1.20;1.10;;;13.80;99.90;;;;;;4212217;28;20073;-71
2022/07/11 03:10:53;;;;;;;1.83;0.90;;;13.80;99.90;;;;;;4212957;28;20024;-68
2022/07/11 03:12:54;;;;;;;2.97;1.30;;;13.80;99.90;;;;;;4212539;28;20109;-69
2022/07/11 03:14:55;;;;;;;2.90;1.23;;;13.90;99.90;;;;;;4213106;28;20422;-69
2022/07/11 03:16:56;;;;;;;1.30;1.20;;;13.90;99.90;;;;;;4216193;28;20020;-69
2022/07/11 03:18:57;;;;;;;1.80;0.93;;;13.90;99.90;;;;;;4228846;28;20040;-67
2022/07/11 03:20:58;;;;;;;2.73;1.30;;;14.00;99.90;;;;;;4229333;28;20418;-69
2022/07/11 03:23:00;;;;;;;2.70;1.33;;;14.00;99.90;;;;;;4228571;28;20032;-69
2022/07/11 03:25:05;;;;;;;4.20;1.50;;;14.00;99.90;;;;;;4229694;28;20015;-69
2022/07/11 03:27:06;;;;;;;1.80;0.87;;;14.10;99.90;;;;;;4228529;28;20084;-69
2022/07/11 03:29:08;;;;;;;1.83;1.13;;;14.10;99.90;;;;;;4229619;27;20096;-70
2022/07/11 03:31:09;;;;;;;1.50;1.10;;;14.10;99.90;;;;;;4217611;28;20039;-69
2022/07/11 03:33:10;;;;;;;1.63;1.10;;;14.10;99.90;;;;;;4212622;28;20090;-70
2022/07/11 03:37:31;;;;;;;2.42;1.40;;;14.10;99.90;;;;;;4196002;28;20394;-69
2022/07/11 03:39:32;;;;;;;1.97;0.97;;;14.10;99.90;;;;;;4194906;28;20033;-68
2022/07/11 03:41:33;;;;;;;3.30;1.17;;;14.10;99.90;;;;;;4223693;28;20031;-67
2022/07/11 03:43:35;;;;;;;1.90;0.80;;;14.10;99.90;;;;;;4213630;28;20089;-69
2022/07/11 03:45:36;;;;;;;0.90;0.80;;;14.10;99.90;;;;;;4212538;28;20089;-67
2022/07/11 03:47:38;;;;;;;1.43;0.90;;;14.10;99.90;;;;;;4211181;28;20012;-70
2022/07/11 03:49:39;;;;;;;2.73;1.03;;;14.10;99.90;;;;;;4210352;28;20466;-69
2022/07/11 03:51:40;;;;;;;1.37;0.93;;;14.10;99.90;;;;;;4211801;28;20074;-68
2022/07/11 03:53:42;;;;;;;3.60;1.00;;;14.20;99.90;;;;;;4211470;28;20161;-71
2022/07/11 03:55:43;;;;;;;2.00;1.00;;;14.30;99.90;;;;;;4211934;28;20050;-67
2022/07/11 03:57:44;;;;;;;2.13;0.90;;;14.90;99.90;;;;;;4211106;28;20020;-72
2022/07/11 03:59:45;;;;;;;2.17;1.10;;;15.30;99.90;;;;;;4212073;28;20065;-68
2022/07/11 04:01:47;;;;;;;1.73;1.00;;;15.50;99.90;;;;;;4210979;28;20070;-70
2022/07/11 04:03:48;;;;;;;4.50;1.07;;;16.00;99.90;;;;;;4212491;28;20040;-70
2022/07/11 04:05:50;;;;;;;2.45;0.82;;;16.30;99.90;;;;;;4210998;28;20443;-72
2022/07/11 04:07:51;;;;;;;3.42;0.82;;;16.80;99.90;;;;;;4218662;28;20410;-70
2022/07/11 04:09:52;;;;;;;1.10;0.70;;;17.20;99.90;;;;;;4227367;28;20100;-70
2022/07/11 04:11:53;;;;;;;5.80;0.80;;;17.50;99.90;;;;;;4228927;28;20035;-66
2022/07/11 04:13:54;;;;;;;16.98;1.98;;;17.80;99.90;;;;;;4228147;28;20493;-70
2022/07/11 04:15:55;;;;;;;2.47;0.80;;;18.20;99.90;;;;;;4228827;28;20088;-68
2022/07/11 04:17:56;;;;;;;3.47;0.75;;;18.50;99.90;;;;;;4227551;28;20069;-68
2022/07/11 04:19:58;;;;;;;2.40;0.77;;;18.60;99.90;;;;;;4223333;28;20108;-67
2022/07/11 04:21:59;;;;;;;3.13;0.77;;;19.10;99.90;;;;;;4211076;28;20089;-67
2022/07/11 04:24:01;;;;;;;0.70;0.60;;;19.30;99.90;;;;;;4211160;28;20012;-67
2022/07/11 04:26:02;;;;;;;3.88;0.82;;;19.50;99.90;;;;;;4211534;28;20044;-67
2022/07/11 04:28:04;;;;;;;1.33;0.52;;;19.80;99.50;;;;;;4205597;28;20866;-67
2022/07/11 04:30:05;;;;;;;1.95;0.70;;;19.60;99.30;;;;;;4194429;28;20070;-67
2022/07/11 04:32:07;;;;;;;1.77;0.73;;;19.20;99.20;;;;;;4199070;28;20079;-69
2022/07/11 04:34:08;;;;;;;1.27;0.60;;;18.80;99.60;;;;;;4211062;28;20028;-69
2022/07/11 04:36:09;;;;;;;0.98;0.82;;;18.30;99.90;;;;;;4210101;28;20085;-68
2022/07/11 04:38:10;;;;;;;1.52;0.50;;;17.80;99.90;;;;;;4211873;28;20081;-69
2022/07/11 04:40:12;;;;;;;0.82;0.63;;;17.50;99.90;;;;;;4211335;28;20051;-69
2022/07/11 04:42:14;;;;;;;2.38;0.60;;;17.70;99.90;;;;;;4210978;28;20475;-68
2022/07/11 04:44:15;;;;;;;1.65;0.68;;;17.90;99.90;;;;;;4210595;28;20032;-69
2022/07/11 04:46:16;;;;;;;1.23;0.40;;;17.50;99.90;;;;;;4222588;28;20069;-70
2022/07/11 04:48:17;;;;;;;3.35;0.70;;;17.20;99.90;;;;;;4227240;28;20468;-71
2022/07/11 04:50:18;;;;;;;3.85;0.88;;;16.90;99.90;;;;;;4227449;28;20024;-68
2022/07/11 04:52:20;;;;;;;2.05;0.70;;;16.70;99.90;;;;;;4227365;28;20028;-69
2022/07/11 04:54:22;;;;;;;3.08;1.17;;;16.60;99.90;;;;;;4217558;28;20081;-68
2022/07/11 04:56:23;;;;;;;4.30;0.77;;;16.40;99.90;;;;;;4227968;28;20061;-68
2022/07/11 04:58:25;;;;;;;2.53;0.98;;;16.30;99.90;;;;;;4226937;28;20040;-69
2022/07/11 05:00:26;;;;;;;2.25;0.70;;;16.20;99.90;;;;;;4227680;28;20043;-69
2022/07/11 05:02:27;;;;;;;1.83;1.02;;;16.00;99.90;;;;;;4225457;28;20039;-70
2022/07/11 05:04:28;;;;;;;1.55;0.80;;;16.00;99.90;;;;;;4227815;28;20489;-69
2022/07/11 05:06:30;;;;;;;3.25;0.55;;;16.00;99.90;;;;;;4226611;28;20047;-67
2022/07/11 05:08:31;;;;;;;7.28;0.70;;;15.90;99.90;;;;;;4194448;28;20032;-68
2022/07/11 05:10:33;;;;;;;2.05;0.80;;;15.90;99.90;;;;;;4193372;28;20029;-68
2022/07/11 05:12:34;;;;;;;4.35;0.70;;;15.90;99.90;;;;;;4194417;28;20547;-69
2022/07/11 05:14:35;;;;;;;2.03;0.50;;;16.00;99.90;;;;;;4193583;28;20538;-67
2022/07/11 05:16:37;;;;;;;2.97;0.70;;;16.00;99.90;;;;;;4194523;28;20036;-68
2022/07/11 05:18:38;;;;;;;1.52;0.73;;;16.00;99.90;;;;;;4193335;28;20032;-68
2022/07/11 05:20:40;;;;;;;2.00;0.60;;;16.00;99.90;;;;;;4194415;28;20037;-68
2022/07/11 05:22:41;;;;;;;1.05;0.50;;;15.90;99.90;;;;;;4193282;28;20028;-71
2022/07/11 05:24:42;;;;;;;3.65;0.75;;;16.00;99.90;;;;;;4194277;28;20028;-68
2022/07/11 05:26:44;;;;;;;2.25;0.77;;;16.10;99.90;;;;;;4193934;28;20855;-68
2022/07/11 05:28:45;;;;;;;3.03;0.63;;;16.20;99.90;;;;;;4193776;28;20049;-69
2022/07/11 05:30:46;;;;;;;1.98;0.60;;;16.50;99.90;;;;;;4193722;28;20066;-68
2022/07/11 05:32:48;;;;;;;3.97;0.55;;;17.20;99.90;;;;;;4193175;28;20044;-68
2022/07/11 05:34:49;;;;;;;6.57;0.77;;;17.80;99.90;;;;;;4194080;28;20024;-68
2022/07/11 05:36:50;;;;;;;4.07;1.80;;;18.40;99.00;;;;;;4192746;28;20044;-68
2022/07/11 05:38:51;;;;;;;3.15;0.70;;;18.50;98.50;;;;;;4194863;28;20028;-70
2022/07/11 05:40:52;;;;;;;1.77;0.93;;;18.60;98.30;;;;;;4196639;28;20044;-68
2022/07/11 05:42:53;;;;;;;2.28;0.88;;;19.00;97.80;;;;;;4197508;28;20028;-68
2022/07/11 05:44:55;;;;;;;3.70;0.65;;;19.70;97.20;;;;;;4196464;28;20036;-71
2022/07/11 05:47:02;;;;;;;2.47;0.50;;;20.10;96.30;;;;;;4197709;28;20033;-68
2022/07/11 05:49:03;;;;;;;3.75;0.50;;;20.10;95.30;;;;;;4196315;28;20431;-69
2022/07/11 05:51:05;;;;;;;2.42;0.40;;;20.70;95.40;;;;;;4197410;28;20033;-69
2022/07/11 05:53:07;;;;;;;0.68;0.50;;;20.90;94.70;;;;;;4196258;28;20036;-68
2022/07/11 05:55:08;;;;;;;2.00;0.40;;;20.90;94.20;;;;;;4197168;28;20537;-69
2022/07/11 05:57:09;;;;;;;1.27;0.35;;;20.50;94.30;;;;;;4196632;28;20024;-69
2022/07/11 05:59:10;;;;;;;0.68;0.40;;;20.10;94.50;;;;;;4196347;28;20037;-69
2022/07/11 06:01:11;;;;;;;3.92;0.50;;;19.70;94.70;;;;;;4196563;28;20040;-72
2022/07/11 06:03:12;;;;;;;2.55;0.68;;;19.20;94.90;;;;;;4195972;28;20386;-69
2022/07/11 06:05:14;;;;;;;2.20;0.57;;;18.80;95.30;;;;;;4197066;28;20040;-68
2022/07/11 06:08:40;;;;;;;1.35;0.35;;;18.50;95.60;;;;;;4195908;28;20078;-71
2022/07/11 06:09:36;;;;;;;1.88;0.63;;;18.30;95.80;;;;;;4196794;28;20066;-69
2022/07/11 06:11:37;;;;;;;2.42;0.40;;;18.10;96.10;;;;;;4195813;28;20044;-71
2022/07/11 06:13:40;;;;;;;1.73;0.50;;;17.90;96.30;;;;;;4197335;28;20037;-69
2022/07/11 06:15:41;;;;;;;1.77;0.50;;;17.80;96.60;;;;;;4195990;28;20032;-68
2022/07/11 06:17:45;;;;;;;1.05;0.38;;;17.60;96.80;;;;;;4196876;28;20028;-67
2022/07/11 06:19:46;;;;;;;1.77;0.52;;;17.50;96.80;;;;;;4195534;28;20052;-67
2022/07/11 06:21:47;;;;;;;1.40;0.52;;;17.50;97.00;;;;;;4197412;28;20078;-69
2022/07/11 06:23:49;;;;;;;3.15;0.82;;;17.50;97.00;;;;;;4195742;28;20032;-69
2022/07/11 06:25:50;;;;;;;3.35;0.77;;;17.50;97.10;;;;;;4196009;28;20052;-69
2022/07/11 06:27:51;;;;;;;4.80;1.40;;;17.50;97.00;;;;;;4195951;28;20469;-70
2022/07/11 06:29:52;;;;;;;1.77;0.55;;;17.50;97.00;;;;;;4196905;28;20032;-69
2022/07/11 06:31:53;;;;;;;4.00;0.57;;;17.60;97.00;;;;;;4195854;28;20020;-69
2022/07/11 06:33:56;;;;;;;5.20;0.60;;;17.60;97.00;;;;;;4196218;28;20076;-69
2022/07/11 06:35:57;;;;;;;4.72;0.70;;;17.70;97.10;;;;;;4196073;28;20028;-68
2022/07/11 06:37:59;;;;;;;1.13;0.52;;;17.80;97.00;;;;;;4195903;28;20086;-69
2022/07/11 06:40:00;;;;;;;2.35;0.43;;;17.90;97.00;;;;;;4196479;28;20049;-70
2022/07/11 06:42:01;;;;;;;2.67;0.60;;;18.00;97.00;;;;;;4195500;28;20034;-70
2022/07/11 06:44:02;;;;;;;1.13;0.60;;;18.10;96.90;;;;;;4196604;28;20101;-69
2022/07/11 06:46:03;;;;;;;1.13;0.43;;;18.10;96.70;;;;;;4195526;28;20082;-69
2022/07/11 06:48:05;;;;;;;1.38;0.45;;;18.00;96.70;;;;;;4196774;28;20025;-67
2022/07/11 06:50:07;;;;;;;1.08;0.50;;;18.00;96.70;;;;;;4194771;28;20048;-70
2022/07/11 06:52:09;;;;;;;0.73;0.40;;;17.90;96.80;;;;;;4196322;28;20028;-70
2022/07/11 06:54:10;;;;;;;1.33;0.40;;;17.80;96.90;;;;;;4195700;28;20033;-69
2022/07/11 06:56:11;;;;;;;0.82;0.50;;;17.80;97.00;;;;;;4196977;28;20040;-73
2022/07/11 06:58:31;;;;;;;3.33;0.70;;;17.90;97.10;;;;;;4195163;28;20480;-68
2022/07/11 07:00:32;;;;;;;1.27;0.47;;;18.00;97.00;;;;;;4195993;28;20109;-69
2022/07/11 07:02:34;;;;;;;1.88;0.43;;;18.00;96.90;;;;;;4194925;28;20036;-70
2022/07/11 07:04:35;;;;;;;0.60;0.45;;;18.20;96.80;;;;;;4196030;28;20113;-70
2022/07/11 07:06:37;;;;;;;2.50;0.55;;;18.30;96.70;;;;;;4195169;28;20074;-70
2022/07/11 07:08:38;;;;;;;1.67;0.45;;;18.50;96.40;;;;;;4195821;28;20013;-69
2022/07/11 07:10:39;;;;;;;1.75;0.50;;;18.70;96.10;;;;;;4195340;28;20086;-68
2022/07/11 07:12:40;;;;;;;3.13;1.35;;;19.00;95.80;;;;;;4195392;28;20102;-70
2022/07/11 07:14:42;;;;;;;3.40;1.00;;;19.30;95.60;;;;;;4195860;28;20078;-69
2022/07/11 07:16:43;;;;;;;2.38;0.70;;;19.70;95.30;;;;;;4195074;28;20016;-72
2022/07/11 07:18:45;;;;;;;4.65;0.90;;;19.90;95.00;;;;;;4195882;28;20032;-69
2022/07/11 07:20:47;;;;;;;1.13;0.65;;;20.20;95.00;;;;;;4194599;28;20102;-69
2022/07/11 07:22:49;;;;;;;2.15;0.45;;;20.30;94.50;;;;;;4196284;28;20048;-68
2022/07/11 07:24:50;;;;;;;2.35;0.45;;;20.30;94.40;;;;;;4194697;28;20546;-68
2022/07/11 07:26:51;;;;;;;1.17;0.55;;;20.40;94.30;;;;;;4196113;28;20032;-68
2022/07/11 07:28:52;;;;;;;3.35;0.35;;;20.30;93.90;;;;;;4194594;28;20036;-70
2022/07/11 07:30:53;;;;;;;3.20;1.02;;;19.90;93.60;;;;;;4196238;28;20036;-71
2022/07/11 07:32:54;;;;;;;3.00;0.80;;;19.60;93.80;;;;;;4194862;28;20090;-70
2022/07/11 07:34:55;;;;;;;2.28;0.40;;;19.50;94.10;;;;;;4195690;28;20422;-72
2022/07/11 07:36:57;;;;;;;4.45;1.00;;;19.50;94.10;;;;;;4194642;28;20025;-69
2022/07/11 07:38:58;;;;;;;2.63;0.60;;;19.60;94.00;;;;;;4195649;28;20148;-69
2022/07/11 07:40:59;;;;;;;1.33;0.47;;;19.70;94.00;;;;;;4194604;28;20102;-69
2022/07/11 07:43:01;;;;;;;2.65;0.40;;;19.50;93.80;;;;;;4194907;28;20028;-68
2022/07/11 07:45:02;;;;;;;4.78;0.65;;;19.80;93.80;;;;;;4195003;28;20013;-68
2022/07/11 07:47:03;;;;;;;2.00;0.65;;;19.90;93.70;;;;;;4194715;28;20036;-70
2022/07/11 07:49:05;;;;;;;2.78;0.40;;;20.30;93.50;;;;;;4195127;28;20025;-69
2022/07/11 07:51:07;;;;;;;0.65;0.50;;;20.50;92.80;;;;;;4194409;28;20094;-72
2022/07/11 07:53:09;;;;;;;2.28;0.50;;;20.60;92.10;;;;;;4195529;28;20024;-71
2022/07/11 07:55:10;;;;;;;27.50;3.72;;;20.20;91.80;;;;;;4194070;28;20040;-69
2022/07/11 07:57:11;;;;;;;3.13;0.70;;;20.00;92.40;;;;;;4195796;28;20028;-68
2022/07/11 07:59:13;;;;;;;1.30;0.47;;;20.10;92.50;;;;;;4192638;28;20063;-68
2022/07/11 08:03:34;;;;;;;1.15;0.30;;;20.50;91.80;;;;;;4193378;28;20040;-71
2022/07/11 08:05:35;;;;;;;1.88;0.50;;;20.80;91.50;;;;;;4195061;28;20339;-69
2022/07/11 08:07:36;;;;;;;1.58;0.50;;;21.10;91.20;;;;;;4193817;28;20098;-69
2022/07/11 08:11:57;;;;;;;3.63;0.40;;;21.20;90.20;;;;;;4193928;28;20033;-68
2022/07/11 08:13:59;;;;;;;1.48;0.40;;;21.00;90.30;;;;;;4195057;28;20074;-68
2022/07/11 08:16:00;;;;;;;5.88;1.35;;;20.80;90.50;;;;;;4194022;28;20036;-69
2022/07/11 08:18:02;;;;;;;1.65;0.40;;;20.90;90.70;;;;;;4194898;28;20078;-70
2022/07/11 08:20:03;;;;;;;4.00;0.90;;;20.90;90.30;;;;;;4192430;28;20049;-69
2022/07/11 08:22:04;;;;;;;2.53;0.40;;;20.80;90.20;;;;;;4194771;28;20040;-68
2022/07/11 08:24:06;;;;;;;2.65;0.50;;;20.70;88.20;;;;;;4194313;28;20024;-69
2022/07/11 08:26:07;;;;;;;3.05;0.50;;;20.00;89.30;;;;;;4194310;28;20106;-70
2022/07/11 08:28:08;;;;;;;6.72;0.75;;;19.80;90.20;;;;;;4194253;28;20193;-68
2022/07/11 08:30:10;;;;;;;2.63;0.65;;;19.90;90.40;;;;;;4193782;28;20695;-71
2022/07/11 08:32:12;;;;;;;5.50;1.13;;;20.20;90.30;;;;;;4194771;28;20082;-67
2022/07/11 08:34:13;;;;;;;2.60;0.40;;;20.70;90.30;;;;;;4193617;28;20074;-68
2022/07/11 08:36:14;;;;;;;5.20;0.65;;;21.10;89.20;;;;;;4194771;28;20036;-71
2022/07/11 08:38:17;;;;;;;2.05;0.30;;;21.30;88.20;;;;;;4192214;28;20492;-70
2022/07/11 08:40:18;;;;;;;3.63;0.75;;;21.10;87.20;;;;;;4194641;28;20093;-70
2022/07/11 08:42:22;;;;;;;3.22;0.40;;;21.30;87.00;;;;;;4193399;28;20570;-70
2022/07/11 08:44:24;;;;;;;2.50;0.52;;;21.10;85.90;;;;;;4194374;28;20089;-68
2022/07/11 08:46:27;;;;;;;41.50;6.80;;;21.10;85.70;;;;;;4193157;28;20086;-68
2022/07/11 08:48:31;;;;;;;6.78;0.90;;;20.90;85.30;;;;;;4194680;28;20040;-68
2022/07/11 08:51:20;;;;;;;9.82;0.75;;;20.70;86.40;;;;;;4193091;28;20028;-69
2022/07/11 08:53:21;;;;;;;5.45;0.90;;;20.70;87.20;;;;;;4194362;28;20024;-68
2022/07/11 08:55:22;;;;;;;10.98;1.83;;;21.00;87.60;;;;;;4193435;28;20430;-70
2022/07/11 08:57:24;;;;;;;4.85;0.93;;;20.90;87.30;;;;;;4195017;28;20032;-69
2022/07/11 08:59:27;;;;;;;3.10;0.40;;;21.20;87.40;;;;;;4193412;28;20428;-69
2022/07/11 09:01:31;;;;;;;1.95;0.20;;;21.20;87.00;;;;;;4194815;28;20477;-69
2022/07/11 09:03:33;;;;;;;3.75;0.40;;;21.50;87.00;;;;;;4193457;28;20090;-69
2022/07/11 09:05:35;;;;;;;2.63;0.30;;;21.60;86.40;;;;;;4194032;28;20036;-69
2022/07/11 09:07:48;;;;;;;2.38;0.50;;;21.70;85.30;;;;;;4193422;28;20067;-69
2022/07/11 09:09:49;;;;;;;5.88;1.40;;;21.40;83.50;;;;;;4194211;28;20094;-73
2022/07/11 09:11:53;;;;;;;0.43;0.40;;;21.40;85.30;;;;;;4193636;28;20531;-70
2022/07/11 09:13:55;;;;;;;1.00;0.30;;;21.30;84.50;;;;;;4193482;28;20077;-68
2022/07/11 09:16:02;;;;;;;3.50;0.47;;;21.40;84.90;;;;;;4194082;28;20028;-69
2022/07/11 09:18:24;;;;;;;2.92;1.02;;;21.60;84.70;;;;;;4193981;28;20104;-69
2022/07/11 09:25:19;;;;;;;1.45;0.22;;;21.70;84.30;;;;;;4188977;28;20044;-69
2022/07/11 09:27:22;;;;;;;5.63;0.80;;;21.40;82.10;;;;;;4194650;28;20078;-68
2022/07/11 09:29:24;;;;;;;3.60;0.30;;;21.20;82.20;;;;;;4193277;28;20089;-68
2022/07/11 09:31:29;;;;;;;4.15;0.60;;;21.40;82.10;;;;;;4193994;28;20086;-68
2022/07/11 09:33:30;;;;;;;3.00;0.40;;;21.60;81.80;;;;;;4193079;28;20090;-68
2022/07/11 09:35:34;;;;;;;3.83;1.15;;;21.50;81.30;;;;;;4193600;28;20082;-69
2022/07/11 09:37:43;;;;;;;11.80;1.45;;;21.30;81.90;;;;;;4193463;28;20086;-68
2022/07/11 09:39:45;;;;;;;1.42;0.45;;;21.00;82.20;;;;;;4192200;28;20554;-68
2022/07/11 09:41:49;;;;;;;2.00;0.40;;;21.00;82.60;;;;;;4193211;28;20427;-69
2022/07/11 09:43:50;;;;;;;1.75;0.30;;;21.20;81.80;;;;;;4192350;28;20110;-69
2022/07/11 09:45:52;;;;;;;6.55;1.15;;;21.50;81.10;;;;;;4193720;28;20034;-68
2022/07/11 09:48:22;;;;;;;0.65;0.65;;;21.60;81.20;;;;;;4192695;28;20472;-73
2022/07/11 09:50:28;;;;;;;1.55;0.25;;;21.80;80.60;;;;;;4192113;28;20090;-68
2022/07/11 09:52:30;;;;;;;0.65;0.38;;;21.80;80.20;;;;;;4192930;28;20070;-70
2022/07/11 09:54:31;;;;;;;1.00;0.30;;;21.70;80.70;;;;;;4193316;28;20443;-68
2022/07/11 09:56:34;;;;;;;1.15;0.17;;;21.50;80.70;;;;;;4192978;28;20112;-69
2022/07/11 09:58:35;;;;;;;0.82;0.22;;;21.40;80.40;;;;;;4194169;28;20094;-68
2022/07/11 10:00:38;;;;;;;1.38;0.20;;;21.40;80.60;;;;;;4192691;28;20370;-68
2022/07/11 10:02:39;;;;;;;1.40;0.30;;;21.50;80.40;;;;;;4193810;28;20033;-68
2022/07/11 10:04:41;;;;;;;1.67;0.30;;;21.70;79.90;;;;;;4192444;28;20033;-68
2022/07/11 10:06:42;;;;;;;1.65;0.30;;;21.80;78.90;;;;;;4193907;28;20094;-69
2022/07/11 10:08:43;;;;;;;0.75;0.40;;;22.00;77.50;;;;;;4192682;28;20086;-69
2022/07/11 10:10:44;;;;;;;1.20;0.30;;;22.00;76.90;;;;;;4193855;28;20446;-68
2022/07/11 10:12:46;;;;;;;1.90;0.65;;;22.10;77.00;;;;;;4192762;28;20385;-67
2022/07/11 10:14:49;;;;;;;8.23;1.73;;;22.10;76.90;;;;;;4193575;28;20032;-71
2022/07/11 10:17:07;;;;;;;2.60;0.30;;;22.20;77.30;;;;;;4192876;28;20358;-67
2022/07/11 10:19:25;;;;;;;2.47;0.47;;;22.20;74.50;;;;;;4193520;28;20439;-68
2022/07/11 10:21:53;;;;;;;2.53;0.20;;;21.90;74.60;;;;;;4192448;28;20117;-67
2022/07/11 10:24:14;;;;;;;1.35;0.35;;;21.80;71.80;;;;;;4193806;28;20530;-68
2022/07/11 10:26:30;;;;;;;3.13;0.63;;;21.70;72.70;;;;;;4194183;28;20032;-68
2022/07/11 10:29:04;;;;;;;3.22;0.70;;;21.70;74.30;;;;;;4196157;28;20086;-69
2022/07/11 10:31:21;;;;;;;21.17;2.50;;;21.60;74.80;;;;;;4194410;28;20180;-68
2022/07/11 10:33:22;;;;;;;3.50;0.45;;;21.40;76.10;;;;;;4196384;28;20037;-70
2022/07/11 10:35:23;;;;;;;2.92;0.55;;;21.30;77.00;;;;;;4195151;28;20025;-68
2022/07/11 10:37:24;;;;;;;3.17;0.57;;;21.20;77.90;;;;;;4196491;28;20044;-68
2022/07/11 10:39:29;;;;;;;1.13;0.20;;;21.20;78.40;;;;;;4195364;28;20397;-68
2022/07/11 10:41:30;;;;;;;2.15;0.40;;;21.20;78.20;;;;;;4196468;28;20044;-71
2022/07/11 10:43:33;;;;;;;1.77;0.28;;;21.30;77.80;;;;;;4195199;28;20036;-69
2022/07/11 10:46:03;;;;;;;1.48;0.30;;;21.10;76.30;;;;;;4196215;28;20474;-69
2022/07/11 10:48:11;;;;;;;5.35;0.60;;;21.30;76.10;;;;;;4195425;28;20055;-69